Hordern Vale, Australia
Current Conditions -  °F | °C
As of 4:30 AM on Friday 31 Oct 2014 (Local Time) from YMAV Reporting Station
Clear Clear  
Wind Chill: 45°   Ceiling: Unl
Heat Index: 48°   Visibility: 6mi
Dew Point: 48°   Wind: 7mph
Humidity: 100%   Direction: 10°N
Pressure: 29.83"   Gusts: NA
Location:  38.77°S, 143.51°E
Report Text: YMAV 301730Z AUTO 01006KT 9999 // NCD 09/09 Q1010
Loading
Personal Weather Stations






























Interactive Weather Map
Tropical Storm Tracking
New forecast layout! Learn more

10-Day Weather Forecast

Advertisements
Track Severe Weather on mobile